sensor_id;sensor_type;location;lat;lon;timestamp;temperature;humidity
66088;DHT22;52872;52.994;6.940;2024-03-02T00:00:40;7.20;97.50
66088;DHT22;52872;52.994;6.940;2024-03-02T00:03:07;7.20;97.50
66088;DHT22;52872;52.994;6.940;2024-03-02T00:05:36;7.20;97.50
66088;DHT22;52872;52.994;6.940;2024-03-02T00:08:04;7.20;97.60
66088;DHT22;52872;52.994;6.940;2024-03-02T00:10:41;7.20;97.60
66088;DHT22;52872;52.994;6.940;2024-03-02T00:13:08;7.20;97.70
66088;DHT22;52872;52.994;6.940;2024-03-02T00:15:46;7.20;97.80
66088;DHT22;52872;52.994;6.940;2024-03-02T00:18:18;7.20;97.70
66088;DHT22;52872;52.994;6.940;2024-03-02T00:20:45;7.20;97.90
66088;DHT22;52872;52.994;6.940;2024-03-02T00:23:16;7.20;97.90
66088;DHT22;52872;52.994;6.940;2024-03-02T00:25:52;7.40;97.90
66088;DHT22;52872;52.994;6.940;2024-03-02T00:28:25;7.30;97.90
66088;DHT22;52872;52.994;6.940;2024-03-02T00:33:27;7.20;98.00
66088;DHT22;52872;52.994;6.940;2024-03-02T00:35:55;7.20;98.00
66088;DHT22;52872;52.994;6.940;2024-03-02T00:38:23;7.20;98.00
66088;DHT22;52872;52.994;6.940;2024-03-02T00:40:50;7.30;98.00
66088;DHT22;52872;52.994;6.940;2024-03-02T00:43:47;7.30;98.00
66088;DHT22;52872;52.994;6.940;2024-03-02T00:46:16;7.40;98.00
66088;DHT22;52872;52.994;6.940;2024-03-02T00:48:51;7.50;97.80
66088;DHT22;52872;52.994;6.940;2024-03-02T00:51:20;7.60;97.70
66088;DHT22;52872;52.994;6.940;2024-03-02T00:53:47;7.60;97.50
66088;DHT22;52872;52.994;6.940;2024-03-02T00:56:14;7.70;97.50
66088;DHT22;52872;52.994;6.940;2024-03-02T00:58:42;7.70;97.50
66088;DHT22;52872;52.994;6.940;2024-03-02T01:01:09;7.70;97.40
66088;DHT22;52872;52.994;6.940;2024-03-02T01:03:36;7.80;97.30
66088;DHT22;52872;52.994;6.940;2024-03-02T01:06:04;7.80;97.40
66088;DHT22;52872;52.994;6.940;2024-03-02T01:08:31;7.80;97.40
66088;DHT22;52872;52.994;6.940;2024-03-02T01:10:59;7.90;97.30
66088;DHT22;52872;52.994;6.940;2024-03-02T01:13:26;7.80;97.30
66088;DHT22;52872;52.994;6.940;2024-03-02T01:15:53;7.90;97.30
66088;DHT22;52872;52.994;6.940;2024-03-02T01:18:20;7.90;97.40
66088;DHT22;52872;52.994;6.940;2024-03-02T01:20:48;7.90;97.30
66088;DHT22;52872;52.994;6.940;2024-03-02T01:23:15;7.90;97.30
66088;DHT22;52872;52.994;6.940;2024-03-02T01:25:42;7.90;97.30
66088;DHT22;52872;52.994;6.940;2024-03-02T01:28:09;7.90;97.20
66088;DHT22;52872;52.994;6.940;2024-03-02T01:30:36;8.10;97.20
66088;DHT22;52872;52.994;6.940;2024-03-02T01:33:03;7.90;97.20
66088;DHT22;52872;52.994;6.940;2024-03-02T01:35:32;7.90;97.20
66088;DHT22;52872;52.994;6.940;2024-03-02T01:37:59;8.00;97.30
66088;DHT22;52872;52.994;6.940;2024-03-02T01:40:26;8.00;97.30
66088;DHT22;52872;52.994;6.940;2024-03-02T01:42:53;8.00;97.30
66088;DHT22;52872;52.994;6.940;2024-03-02T01:45:21;8.00;97.10
66088;DHT22;52872;52.994;6.940;2024-03-02T01:47:48;8.00;97.20
66088;DHT22;52872;52.994;6.940;2024-03-02T01:50:16;8.10;97.20
66088;DHT22;52872;52.994;6.940;2024-03-02T01:52:51;8.10;97.10
66088;DHT22;52872;52.994;6.940;2024-03-02T01:55:18;8.10;97.20
66088;DHT22;52872;52.994;6.940;2024-03-02T01:57:45;8.30;97.00
66088;DHT22;52872;52.994;6.940;2024-03-02T02:00:12;8.00;97.00
66088;DHT22;52872;52.994;6.940;2024-03-02T02:02:39;8.10;97.00
66088;DHT22;52872;52.994;6.940;2024-03-02T02:05:07;8.10;97.10
66088;DHT22;52872;52.994;6.940;2024-03-02T02:07:35;8.10;96.90
66088;DHT22;52872;52.994;6.940;2024-03-02T02:10:02;8.10;96.80
66088;DHT22;52872;52.994;6.940;2024-03-02T02:12:29;8.10;96.70
66088;DHT22;52872;52.994;6.940;2024-03-02T02:14:56;8.10;96.80
66088;DHT22;52872;52.994;6.940;2024-03-02T02:17:23;8.20;96.60
66088;DHT22;52872;52.994;6.940;2024-03-02T02:19:50;8.20;96.70
66088;DHT22;52872;52.994;6.940;2024-03-02T02:22:17;8.30;96.70
66088;DHT22;52872;52.994;6.940;2024-03-02T02:24:44;8.30;96.70
66088;DHT22;52872;52.994;6.940;2024-03-02T02:27:11;8.30;96.80
66088;DHT22;52872;52.994;6.940;2024-03-02T02:29:41;8.30;96.60
66088;DHT22;52872;52.994;6.940;2024-03-02T02:32:08;8.40;96.70
66088;DHT22;52872;52.994;6.940;2024-03-02T02:34:35;8.40;96.40
66088;DHT22;52872;52.994;6.940;2024-03-02T02:37:02;8.40;96.50
66088;DHT22;52872;52.994;6.940;2024-03-02T02:39:29;8.40;96.50
66088;DHT22;52872;52.994;6.940;2024-03-02T02:41:56;8.40;96.50
66088;DHT22;52872;52.994;6.940;2024-03-02T02:44:23;8.50;96.50
66088;DHT22;52872;52.994;6.940;2024-03-02T02:46:50;8.50;96.50
66088;DHT22;52872;52.994;6.940;2024-03-02T02:49:17;8.50;96.40
66088;DHT22;52872;52.994;6.940;2024-03-02T02:51:44;8.50;96.50
66088;DHT22;52872;52.994;6.940;2024-03-02T02:54:11;8.50;96.60
66088;DHT22;52872;52.994;6.940;2024-03-02T02:56:38;8.50;96.60
66088;DHT22;52872;52.994;6.940;2024-03-02T02:59:05;8.50;96.70
66088;DHT22;52872;52.994;6.940;2024-03-02T03:01:32;8.40;96.80
66088;DHT22;52872;52.994;6.940;2024-03-02T03:04:00;8.40;96.80
66088;DHT22;52872;52.994;6.940;2024-03-02T03:06:26;8.40;96.90
66088;DHT22;52872;52.994;6.940;2024-03-02T03:08:53;8.30;96.90
66088;DHT22;52872;52.994;6.940;2024-03-02T03:11:20;8.30;97.00
66088;DHT22;52872;52.994;6.940;2024-03-02T03:13:49;8.30;97.00
66088;DHT22;52872;52.994;6.940;2024-03-02T03:16:16;8.30;97.10
66088;DHT22;52872;52.994;6.940;2024-03-02T03:18:43;8.30;97.30
66088;DHT22;52872;52.994;6.940;2024-03-02T03:21:10;8.40;97.10
66088;DHT22;52872;52.994;6.940;2024-03-02T03:23:37;8.50;97.00
66088;DHT22;52872;52.994;6.940;2024-03-02T03:26:04;8.50;96.90
66088;DHT22;52872;52.994;6.940;2024-03-02T03:28:31;8.50;97.10
66088;DHT22;52872;52.994;6.940;2024-03-02T03:30:58;8.60;96.80
66088;DHT22;52872;52.994;6.940;2024-03-02T03:33:25;8.60;96.70
66088;DHT22;52872;52.994;6.940;2024-03-02T03:35:52;8.60;96.70
66088;DHT22;52872;52.994;6.940;2024-03-02T03:38:20;8.70;96.70
66088;DHT22;52872;52.994;6.940;2024-03-02T03:40:47;8.70;96.60
66088;DHT22;52872;52.994;6.940;2024-03-02T03:43:14;8.70;96.80
66088;DHT22;52872;52.994;6.940;2024-03-02T03:45:41;8.70;96.70
66088;DHT22;52872;52.994;6.940;2024-03-02T03:48:08;8.70;96.80
66088;DHT22;52872;52.994;6.940;2024-03-02T03:50:35;8.70;96.80
66088;DHT22;52872;52.994;6.940;2024-03-02T03:53:02;8.70;96.60
66088;DHT22;52872;52.994;6.940;2024-03-02T03:55:29;8.60;96.70
66088;DHT22;52872;52.994;6.940;2024-03-02T03:57:56;8.60;96.50
66088;DHT22;52872;52.994;6.940;2024-03-02T04:00:24;8.60;96.60
66088;DHT22;52872;52.994;6.940;2024-03-02T04:02:51;8.50;96.70
66088;DHT22;52872;52.994;6.940;2024-03-02T04:05:18;8.50;96.80
66088;DHT22;52872;52.994;6.940;2024-03-02T04:07:45;8.40;96.90
66088;DHT22;52872;52.994;6.940;2024-03-02T04:10:11;8.30;96.90
66088;DHT22;52872;52.994;6.940;2024-03-02T04:12:39;8.30;97.10
66088;DHT22;52872;52.994;6.940;2024-03-02T04:15:07;8.20;97.10
66088;DHT22;52872;52.994;6.940;2024-03-02T04:17:35;8.20;97.20
66088;DHT22;52872;52.994;6.940;2024-03-02T04:20:03;8.20;97.30
66088;DHT22;52872;52.994;6.940;2024-03-02T04:22:33;8.20;97.30
66088;DHT22;52872;52.994;6.940;2024-03-02T04:25:01;8.30;97.30
66088;DHT22;52872;52.994;6.940;2024-03-02T04:27:31;8.30;97.20
66088;DHT22;52872;52.994;6.940;2024-03-02T04:30:00;8.30;97.10
66088;DHT22;52872;52.994;6.940;2024-03-02T04:32:27;8.40;97.20
66088;DHT22;52872;52.994;6.940;2024-03-02T04:34:54;8.40;97.10
66088;DHT22;52872;52.994;6.940;2024-03-02T04:37:21;8.30;97.20
66088;DHT22;52872;52.994;6.940;2024-03-02T04:39:48;8.30;97.40
66088;DHT22;52872;52.994;6.940;2024-03-02T04:42:15;8.30;97.20
66088;DHT22;52872;52.994;6.940;2024-03-02T04:44:42;8.30;97.20
66088;DHT22;52872;52.994;6.940;2024-03-02T04:47:09;8.30;97.20
66088;DHT22;52872;52.994;6.940;2024-03-02T04:49:36;8.40;97.10
66088;DHT22;52872;52.994;6.940;2024-03-02T04:52:04;8.30;97.10
66088;DHT22;52872;52.994;6.940;2024-03-02T04:54:31;8.30;97.10
66088;DHT22;52872;52.994;6.940;2024-03-02T04:56:58;8.20;97.10
66088;DHT22;52872;52.994;6.940;2024-03-02T04:59:25;8.20;97.20
66088;DHT22;52872;52.994;6.940;2024-03-02T05:01:52;8.20;97.20
66088;DHT22;52872;52.994;6.940;2024-03-02T05:04:19;8.30;97.20
66088;DHT22;52872;52.994;6.940;2024-03-02T05:06:46;8.30;97.00
66088;DHT22;52872;52.994;6.940;2024-03-02T05:09:19;8.30;97.10
66088;DHT22;52872;52.994;6.940;2024-03-02T05:11:46;8.30;97.00
66088;DHT22;52872;52.994;6.940;2024-03-02T05:14:32;8.30;97.00
66088;DHT22;52872;52.994;6.940;2024-03-02T05:16:59;8.30;97.10
66088;DHT22;52872;52.994;6.940;2024-03-02T05:19:26;8.30;97.00
66088;DHT22;52872;52.994;6.940;2024-03-02T05:21:53;8.30;97.00
66088;DHT22;52872;52.994;6.940;2024-03-02T05:24:20;8.30;96.90
66088;DHT22;52872;52.994;6.940;2024-03-02T05:26:47;8.30;97.00
66088;DHT22;52872;52.994;6.940;2024-03-02T05:29:13;8.30;97.00
66088;DHT22;52872;52.994;6.940;2024-03-02T05:31:41;8.30;97.10
66088;DHT22;52872;52.994;6.940;2024-03-02T05:34:08;8.10;97.20
66088;DHT22;52872;52.994;6.940;2024-03-02T05:36:35;8.10;97.20
66088;DHT22;52872;52.994;6.940;2024-03-02T05:39:02;7.90;97.40
66088;DHT22;52872;52.994;6.940;2024-03-02T05:41:31;7.80;97.60
66088;DHT22;52872;52.994;6.940;2024-03-02T05:43:58;7.80;97.70
66088;DHT22;52872;52.994;6.940;2024-03-02T05:46:25;7.70;97.80
66088;DHT22;52872;52.994;6.940;2024-03-02T05:48:53;7.60;97.90
66088;DHT22;52872;52.994;6.940;2024-03-02T05:51:20;7.70;98.00
66088;DHT22;52872;52.994;6.940;2024-03-02T05:53:47;7.50;98.00
66088;DHT22;52872;52.994;6.940;2024-03-02T05:56:14;7.50;98.10
66088;DHT22;52872;52.994;6.940;2024-03-02T05:58:41;7.40;97.90
66088;DHT22;52872;52.994;6.940;2024-03-02T06:01:27;7.50;98.10
66088;DHT22;52872;52.994;6.940;2024-03-02T06:03:56;7.80;98.10
66088;DHT22;52872;52.994;6.940;2024-03-02T06:06:23;7.70;98.10
66088;DHT22;52872;52.994;6.940;2024-03-02T06:08:51;7.60;98.10
66088;DHT22;52872;52.994;6.940;2024-03-02T06:11:21;7.60;98.10
66088;DHT22;52872;52.994;6.940;2024-03-02T06:13:48;7.70;98.10
66088;DHT22;52872;52.994;6.940;2024-03-02T06:16:15;7.80;98.10
66088;DHT22;52872;52.994;6.940;2024-03-02T06:18:42;7.80;98.00
66088;DHT22;52872;52.994;6.940;2024-03-02T06:21:09;7.70;98.00
66088;DHT22;52872;52.994;6.940;2024-03-02T06:23:36;7.70;98.10
66088;DHT22;52872;52.994;6.940;2024-03-02T06:26:03;7.60;98.20
66088;DHT22;52872;52.994;6.940;2024-03-02T06:28:30;7.50;98.20
66088;DHT22;52872;52.994;6.940;2024-03-02T06:30:57;7.40;98.50
66088;DHT22;52872;52.994;6.940;2024-03-02T06:33:24;7.30;98.80
66088;DHT22;52872;52.994;6.940;2024-03-02T06:35:51;7.20;99.00
66088;DHT22;52872;52.994;6.940;2024-03-02T06:38:18;7.20;99.10
66088;DHT22;52872;52.994;6.940;2024-03-02T06:40:45;7.20;99.30
66088;DHT22;52872;52.994;6.940;2024-03-02T06:43:12;7.20;99.30
66088;DHT22;52872;52.994;6.940;2024-03-02T06:45:39;7.20;99.30
66088;DHT22;52872;52.994;6.940;2024-03-02T06:48:06;7.20;99.30
66088;DHT22;52872;52.994;6.940;2024-03-02T06:50:33;7.20;99.30
66088;DHT22;52872;52.994;6.940;2024-03-02T06:53:00;7.20;99.40
66088;DHT22;52872;52.994;6.940;2024-03-02T06:55:27;7.20;99.30
66088;DHT22;52872;52.994;6.940;2024-03-02T06:57:54;7.30;99.40
66088;DHT22;52872;52.994;6.940;2024-03-02T07:00:21;7.40;99.20
66088;DHT22;52872;52.994;6.940;2024-03-02T07:02:48;7.50;99.00
66088;DHT22;52872;52.994;6.940;2024-03-02T07:05:15;7.60;98.90
66088;DHT22;52872;52.994;6.940;2024-03-02T07:07:42;7.80;98.90
66088;DHT22;52872;52.994;6.940;2024-03-02T07:10:09;7.90;98.70
66088;DHT22;52872;52.994;6.940;2024-03-02T07:12:37;8.00;98.60
66088;DHT22;52872;52.994;6.940;2024-03-02T07:15:04;8.00;98.30
66088;DHT22;52872;52.994;6.940;2024-03-02T07:17:32;8.10;98.50
66088;DHT22;52872;52.994;6.940;2024-03-02T07:19:59;8.10;98.40
66088;DHT22;52872;52.994;6.940;2024-03-02T07:22:26;8.20;98.20
66088;DHT22;52872;52.994;6.940;2024-03-02T07:24:53;8.30;98.10
66088;DHT22;52872;52.994;6.940;2024-03-02T07:27:20;8.30;98.00
66088;DHT22;52872;52.994;6.940;2024-03-02T07:29:47;8.30;98.00
66088;DHT22;52872;52.994;6.940;2024-03-02T07:32:14;8.30;98.10
66088;DHT22;52872;52.994;6.940;2024-03-02T07:34:41;8.30;98.10
66088;DHT22;52872;52.994;6.940;2024-03-02T07:37:08;8.20;98.30
66088;DHT22;52872;52.994;6.940;2024-03-02T07:39:36;8.40;98.60
66088;DHT22;52872;52.994;6.940;2024-03-02T07:42:04;8.70;98.40
66088;DHT22;52872;52.994;6.940;2024-03-02T07:44:32;9.10;98.10
66088;DHT22;52872;52.994;6.940;2024-03-02T07:46:59;9.60;97.50
66088;DHT22;52872;52.994;6.940;2024-03-02T07:49:26;10.00;96.20
66088;DHT22;52872;52.994;6.940;2024-03-02T07:51:52;10.20;96.10
66088;DHT22;52872;52.994;6.940;2024-03-02T07:54:19;10.50;95.90
66088;DHT22;52872;52.994;6.940;2024-03-02T07:56:46;10.50;95.10
66088;DHT22;52872;52.994;6.940;2024-03-02T07:59:14;10.50;94.70
66088;DHT22;52872;52.994;6.940;2024-03-02T08:01:41;10.30;94.80
66088;DHT22;52872;52.994;6.940;2024-03-02T08:04:08;10.10;95.30
66088;DHT22;52872;52.994;6.940;2024-03-02T08:06:35;9.80;95.40
66088;DHT22;52872;52.994;6.940;2024-03-02T08:09:02;9.70;95.70
66088;DHT22;52872;52.994;6.940;2024-03-02T08:11:36;9.50;95.80
66088;DHT22;52872;52.994;6.940;2024-03-02T08:14:04;9.40;96.20
66088;DHT22;52872;52.994;6.940;2024-03-02T08:16:31;9.40;96.20
66088;DHT22;52872;52.994;6.940;2024-03-02T08:18:58;9.40;96.40
66088;DHT22;52872;52.994;6.940;2024-03-02T08:21:26;9.40;96.50
66088;DHT22;52872;52.994;6.940;2024-03-02T08:23:53;9.40;96.40
66088;DHT22;52872;52.994;6.940;2024-03-02T08:26:20;9.40;96.60
66088;DHT22;52872;52.994;6.940;2024-03-02T08:28:47;9.40;96.50
66088;DHT22;52872;52.994;6.940;2024-03-02T08:31:14;9.40;96.50
66088;DHT22;52872;52.994;6.940;2024-03-02T08:33:41;9.40;96.70
66088;DHT22;52872;52.994;6.940;2024-03-02T08:36:09;9.50;96.70
66088;DHT22;52872;52.994;6.940;2024-03-02T08:38:36;9.40;96.70
66088;DHT22;52872;52.994;6.940;2024-03-02T08:41:03;9.50;96.70
66088;DHT22;52872;52.994;6.940;2024-03-02T08:43:31;9.50;96.60
66088;DHT22;52872;52.994;6.940;2024-03-02T08:45:58;9.60;96.50
66088;DHT22;52872;52.994;6.940;2024-03-02T08:48:25;9.60;96.40
66088;DHT22;52872;52.994;6.940;2024-03-02T08:50:52;9.60;96.50
66088;DHT22;52872;52.994;6.940;2024-03-02T08:53:18;9.70;96.40
66088;DHT22;52872;52.994;6.940;2024-03-02T08:55:49;9.80;96.60
66088;DHT22;52872;52.994;6.940;2024-03-02T08:58:16;9.80;96.50
66088;DHT22;52872;52.994;6.940;2024-03-02T09:00:43;9.80;96.30
66088;DHT22;52872;52.994;6.940;2024-03-02T09:03:10;9.90;96.20
66088;DHT22;52872;52.994;6.940;2024-03-02T09:05:37;9.90;96.00
66088;DHT22;52872;52.994;6.940;2024-03-02T09:08:04;10.00;95.70
66088;DHT22;52872;52.994;6.940;2024-03-02T09:10:33;10.00;95.60
66088;DHT22;52872;52.994;6.940;2024-03-02T09:13:00;10.10;96.10
66088;DHT22;52872;52.994;6.940;2024-03-02T09:15:27;11.00;96.00
66088;DHT22;52872;52.994;6.940;2024-03-02T09:17:54;12.30;95.00
66088;DHT22;52872;52.994;6.940;2024-03-02T09:20:21;13.30;92.40
66088;DHT22;52872;52.994;6.940;2024-03-02T09:22:49;13.90;91.10
66088;DHT22;52872;52.994;6.940;2024-03-02T09:25:16;14.50;91.10
66088;DHT22;52872;52.994;6.940;2024-03-02T09:27:43;14.90;90.10
66088;DHT22;52872;52.994;6.940;2024-03-02T09:30:11;15.10;88.00
66088;DHT22;52872;52.994;6.940;2024-03-02T09:32:38;15.20;87.10
66088;DHT22;52872;52.994;6.940;2024-03-02T09:35:05;15.20;87.90
66088;DHT22;52872;52.994;6.940;2024-03-02T09:37:32;15.20;85.70
66088;DHT22;52872;52.994;6.940;2024-03-02T09:39:59;15.10;85.50
66088;DHT22;52872;52.994;6.940;2024-03-02T09:42:26;14.80;85.90
66088;DHT22;52872;52.994;6.940;2024-03-02T09:44:54;14.30;87.60
66088;DHT22;52872;52.994;6.940;2024-03-02T09:47:21;14.00;88.20
66088;DHT22;52872;52.994;6.940;2024-03-02T09:49:48;13.80;88.50
66088;DHT22;52872;52.994;6.940;2024-03-02T09:52:16;13.90;88.60
66088;DHT22;52872;52.994;6.940;2024-03-02T09:54:43;14.00;88.00
66088;DHT22;52872;52.994;6.940;2024-03-02T09:57:10;14.30;88.30
66088;DHT22;52872;52.994;6.940;2024-03-02T09:59:37;14.60;86.80
66088;DHT22;52872;52.994;6.940;2024-03-02T10:02:04;15.30;86.90
66088;DHT22;52872;52.994;6.940;2024-03-02T10:04:34;15.80;84.50
66088;DHT22;52872;52.994;6.940;2024-03-02T10:07:16;16.20;84.40
66088;DHT22;52872;52.994;6.940;2024-03-02T10:09:48;16.70;81.60
66088;DHT22;52872;52.994;6.940;2024-03-02T10:12:17;16.80;81.90
66088;DHT22;52872;52.994;6.940;2024-03-02T10:14:44;16.40;80.90
66088;DHT22;52872;52.994;6.940;2024-03-02T10:17:13;16.10;81.50
66088;DHT22;52872;52.994;6.940;2024-03-02T10:19:42;16.00;81.00
66088;DHT22;52872;52.994;6.940;2024-03-02T10:22:09;15.90;81.40
66088;DHT22;52872;52.994;6.940;2024-03-02T10:24:41;15.90;82.10
66088;DHT22;52872;52.994;6.940;2024-03-02T10:27:19;16.00;82.60
66088;DHT22;52872;52.994;6.940;2024-03-02T10:29:49;16.30;80.90
66088;DHT22;52872;52.994;6.940;2024-03-02T10:32:16;16.40;80.90
66088;DHT22;52872;52.994;6.940;2024-03-02T10:34:46;16.40;80.10
66088;DHT22;52872;52.994;6.940;2024-03-02T10:37:15;16.40;80.70
66088;DHT22;52872;52.994;6.940;2024-03-02T10:39:46;16.70;80.30
66088;DHT22;52872;52.994;6.940;2024-03-02T10:42:14;16.90;78.30
66088;DHT22;52872;52.994;6.940;2024-03-02T10:44:42;16.90;77.80
66088;DHT22;52872;52.994;6.940;2024-03-02T10:47:12;16.50;77.90
66088;DHT22;52872;52.994;6.940;2024-03-02T10:49:42;16.50;78.60
66088;DHT22;52872;52.994;6.940;2024-03-02T10:52:12;16.90;78.00
66088;DHT22;52872;52.994;6.940;2024-03-02T10:54:39;16.80;78.20
66088;DHT22;52872;52.994;6.940;2024-03-02T10:57:08;17.10;76.80
66088;DHT22;52872;52.994;6.940;2024-03-02T10:59:48;16.80;77.10
66088;DHT22;52872;52.994;6.940;2024-03-02T11:02:21;16.80;76.90
66088;DHT22;52872;52.994;6.940;2024-03-02T11:04:49;16.40;77.40
66088;DHT22;52872;52.994;6.940;2024-03-02T11:07:18;16.30;78.30
66088;DHT22;52872;52.994;6.940;2024-03-02T11:09:56;16.10;79.10
66088;DHT22;52872;52.994;6.940;2024-03-02T11:12:51;16.40;77.60
66088;DHT22;52872;52.994;6.940;2024-03-02T11:15:21;16.60;77.10
66088;DHT22;52872;52.994;6.940;2024-03-02T11:17:52;16.50;77.20
66088;DHT22;52872;52.994;6.940;2024-03-02T11:20:19;16.60;77.60
66088;DHT22;52872;52.994;6.940;2024-03-02T11:22:47;16.80;76.50
66088;DHT22;52872;52.994;6.940;2024-03-02T11:25:32;17.00;76.70
66088;DHT22;52872;52.994;6.940;2024-03-02T11:28:01;17.00;75.90
66088;DHT22;52872;52.994;6.940;2024-03-02T11:33:03;16.80;76.30
66088;DHT22;52872;52.994;6.940;2024-03-02T11:35:41;17.00;76.10
66088;DHT22;52872;52.994;6.940;2024-03-02T11:38:10;17.10;76.10
66088;DHT22;52872;52.994;6.940;2024-03-02T11:40:39;17.20;75.70
66088;DHT22;52872;52.994;6.940;2024-03-02T11:43:07;17.10;75.50
66088;DHT22;52872;52.994;6.940;2024-03-02T11:45:36;17.00;76.50
66088;DHT22;52872;52.994;6.940;2024-03-02T11:48:08;17.20;76.00
66088;DHT22;52872;52.994;6.940;2024-03-02T11:50:41;17.30;75.70
66088;DHT22;52872;52.994;6.940;2024-03-02T11:53:09;17.50;75.30
66088;DHT22;52872;52.994;6.940;2024-03-02T11:55:40;17.40;74.50
66088;DHT22;52872;52.994;6.940;2024-03-02T11:58:08;17.70;74.70
66088;DHT22;52872;52.994;6.940;2024-03-02T12:00:35;17.50;74.70
66088;DHT22;52872;52.994;6.940;2024-03-02T12:03:05;17.70;74.10
66088;DHT22;52872;52.994;6.940;2024-03-02T12:05:33;17.70;72.90
66088;DHT22;52872;52.994;6.940;2024-03-02T12:08:06;17.90;73.30
66088;DHT22;52872;52.994;6.940;2024-03-02T12:10:35;17.80;72.10
66088;DHT22;52872;52.994;6.940;2024-03-02T12:13:07;17.80;72.50
66088;DHT22;52872;52.994;6.940;2024-03-02T12:15:35;17.60;72.90
66088;DHT22;52872;52.994;6.940;2024-03-02T12:18:06;17.60;73.30
66088;DHT22;52872;52.994;6.940;2024-03-02T12:20:34;17.70;73.70
66088;DHT22;52872;52.994;6.940;2024-03-02T12:23:04;17.50;73.50
66088;DHT22;52872;52.994;6.940;2024-03-02T12:25:32;17.60;73.90
66088;DHT22;52872;52.994;6.940;2024-03-02T12:28:02;16.80;73.50
66088;DHT22;52872;52.994;6.940;2024-03-02T12:30:30;15.90;76.20
66088;DHT22;52872;52.994;6.940;2024-03-02T12:32:58;15.70;77.20
66088;DHT22;52872;52.994;6.940;2024-03-02T12:35:26;16.00;76.80
66088;DHT22;52872;52.994;6.940;2024-03-02T12:37:54;16.40;76.20
66088;DHT22;52872;52.994;6.940;2024-03-02T12:40:22;16.90;74.20
66088;DHT22;52872;52.994;6.940;2024-03-02T12:42:50;17.10;73.30
66088;DHT22;52872;52.994;6.940;2024-03-02T12:45:18;17.00;73.50
66088;DHT22;52872;52.994;6.940;2024-03-02T12:47:51;17.00;73.70
66088;DHT22;52872;52.994;6.940;2024-03-02T12:50:18;17.00;73.60
66088;DHT22;52872;52.994;6.940;2024-03-02T12:52:53;17.10;73.80
66088;DHT22;52872;52.994;6.940;2024-03-02T12:55:21;17.40;72.50
66088;DHT22;52872;52.994;6.940;2024-03-02T12:57:52;17.20;73.40
66088;DHT22;52872;52.994;6.940;2024-03-02T13:00:20;16.70;74.00
66088;DHT22;52872;52.994;6.940;2024-03-02T13:02:48;16.50;74.20
66088;DHT22;52872;52.994;6.940;2024-03-02T13:05:17;16.70;73.40
66088;DHT22;52872;52.994;6.940;2024-03-02T13:07:47;16.90;71.40
66088;DHT22;52872;52.994;6.940;2024-03-02T13:10:14;16.90;71.80
66088;DHT22;52872;52.994;6.940;2024-03-02T13:12:42;17.10;72.20
66088;DHT22;52872;52.994;6.940;2024-03-02T13:15:10;16.90;72.50
66088;DHT22;52872;52.994;6.940;2024-03-02T13:17:40;16.90;71.90
66088;DHT22;52872;52.994;6.940;2024-03-02T13:20:07;17.00;73.00
66088;DHT22;52872;52.994;6.940;2024-03-02T13:22:37;17.10;72.70
66088;DHT22;52872;52.994;6.940;2024-03-02T13:25:04;17.60;71.40
66088;DHT22;52872;52.994;6.940;2024-03-02T13:27:32;17.90;71.00
66088;DHT22;52872;52.994;6.940;2024-03-02T13:30:01;18.00;70.20
66088;DHT22;52872;52.994;6.940;2024-03-02T13:32:28;18.20;69.50
66088;DHT22;52872;52.994;6.940;2024-03-02T13:34:55;18.10;70.20
66088;DHT22;52872;52.994;6.940;2024-03-02T13:37:22;17.70;70.40
66088;DHT22;52872;52.994;6.940;2024-03-02T13:39:49;17.70;70.80
66088;DHT22;52872;52.994;6.940;2024-03-02T13:42:16;17.90;70.00
66088;DHT22;52872;52.994;6.940;2024-03-02T13:44:44;18.20;68.90
66088;DHT22;52872;52.994;6.940;2024-03-02T13:47:16;18.30;69.50
66088;DHT22;52872;52.994;6.940;2024-03-02T13:49:43;18.00;69.80
66088;DHT22;52872;52.994;6.940;2024-03-02T13:52:12;17.90;69.90
66088;DHT22;52872;52.994;6.940;2024-03-02T13:54:47;17.80;70.60
66088;DHT22;52872;52.994;6.940;2024-03-02T13:57:14;17.60;70.70
66088;DHT22;52872;52.994;6.940;2024-03-02T13:59:42;17.40;71.20
66088;DHT22;52872;52.994;6.940;2024-03-02T14:02:12;17.40;71.30
66088;DHT22;52872;52.994;6.940;2024-03-02T14:04:39;17.60;70.80
66088;DHT22;52872;52.994;6.940;2024-03-02T14:07:06;17.60;70.30
66088;DHT22;52872;52.994;6.940;2024-03-02T14:09:34;17.80;69.70
66088;DHT22;52872;52.994;6.940;2024-03-02T14:12:02;18.10;69.30
66088;DHT22;52872;52.994;6.940;2024-03-02T14:14:29;18.10;69.70
66088;DHT22;52872;52.994;6.940;2024-03-02T14:16:56;17.90;69.50
66088;DHT22;52872;52.994;6.940;2024-03-02T14:19:27;17.60;69.40
66088;DHT22;52872;52.994;6.940;2024-03-02T14:21:54;17.50;70.90
66088;DHT22;52872;52.994;6.940;2024-03-02T14:24:21;17.60;70.30
66088;DHT22;52872;52.994;6.940;2024-03-02T14:26:51;17.40;70.10
66088;DHT22;52872;52.994;6.940;2024-03-02T14:29:20;16.90;71.60
66088;DHT22;52872;52.994;6.940;2024-03-02T14:31:47;16.40;72.50
66088;DHT22;52872;52.994;6.940;2024-03-02T14:34:15;15.90;73.10
66088;DHT22;52872;52.994;6.940;2024-03-02T14:36:42;15.50;74.10
66088;DHT22;52872;52.994;6.940;2024-03-02T14:39:12;15.40;75.30
66088;DHT22;52872;52.994;6.940;2024-03-02T14:41:39;15.00;75.80
66088;DHT22;52872;52.994;6.940;2024-03-02T14:44:06;14.80;76.60
66088;DHT22;52872;52.994;6.940;2024-03-02T14:46:33;14.50;77.00
66088;DHT22;52872;52.994;6.940;2024-03-02T14:49:00;14.40;77.50
66088;DHT22;52872;52.994;6.940;2024-03-02T14:51:27;14.20;77.60
66088;DHT22;52872;52.994;6.940;2024-03-02T14:53:56;14.20;78.20
66088;DHT22;52872;52.994;6.940;2024-03-02T14:56:23;14.20;78.20
66088;DHT22;52872;52.994;6.940;2024-03-02T14:58:51;14.30;78.50
66088;DHT22;52872;52.994;6.940;2024-03-02T15:01:18;14.20;78.60
66088;DHT22;52872;52.994;6.940;2024-03-02T15:03:45;14.30;79.00
66088;DHT22;52872;52.994;6.940;2024-03-02T15:06:12;14.50;78.60
66088;DHT22;52872;52.994;6.940;2024-03-02T15:08:39;14.80;78.40
66088;DHT22;52872;52.994;6.940;2024-03-02T15:11:08;15.30;77.60
66088;DHT22;52872;52.994;6.940;2024-03-02T15:13:36;15.40;76.90
66088;DHT22;52872;52.994;6.940;2024-03-02T15:16:03;15.40;77.50
66088;DHT22;52872;52.994;6.940;2024-03-02T15:18:30;15.50;77.20
66088;DHT22;52872;52.994;6.940;2024-03-02T15:20:58;15.80;77.10
66088;DHT22;52872;52.994;6.940;2024-03-02T15:23:24;16.00;76.40
66088;DHT22;52872;52.994;6.940;2024-03-02T15:25:51;16.40;76.20
66088;DHT22;52872;52.994;6.940;2024-03-02T15:28:18;16.80;75.30
66088;DHT22;52872;52.994;6.940;2024-03-02T15:30:46;17.10;74.80
66088;DHT22;52872;52.994;6.940;2024-03-02T15:33:13;17.20;74.40
66088;DHT22;52872;52.994;6.940;2024-03-02T15:35:40;17.30;74.60
66088;DHT22;52872;52.994;6.940;2024-03-02T15:38:07;17.30;74.40
66088;DHT22;52872;52.994;6.940;2024-03-02T15:40:40;17.60;74.20
66088;DHT22;52872;52.994;6.940;2024-03-02T15:43:07;18.00;73.80
66088;DHT22;52872;52.994;6.940;2024-03-02T15:45:34;18.50;72.90
66088;DHT22;52872;52.994;6.940;2024-03-02T15:48:01;18.90;72.00
66088;DHT22;52872;52.994;6.940;2024-03-02T15:50:28;19.30;71.40